ADDS METAR Data INFO
IDs: Format: Raw Decoded Include TAF

Data at: 1014 UTC 14 Dec 2017

KBIV 140953Z AUTO 00000KT 10SM CLR M14/M17 A2990 RMK AO2 SLP138 T11391167
KBIV 140853Z AUTO 00000KT 10SM CLR M12/M14 A2987 RMK AO2 SLP127 T11171139 51039
KBIV 140753Z AUTO 01004KT 10SM CLR M09/M13 A2984 RMK AO2 SLP117 T10941133
KBIV 140653Z AUTO 36006KT 10SM CLR M09/M12 A2980 RMK AO2 SLP100 T10891122
KBIV 140553Z AUTO 01009G15KT 10SM CLR M08/M12 A2975 RMK AO2 SLP084 60002 T10831117 11061 21083 51059
KBIV 140453Z AUTO 36009G17KT 10SM SCT095 SCT110 M07/M11 A2970 RMK AO2 SNE02 SLP069 P0000 T10721106 410331089
KBIV 140353Z AUTO 01010G15KT 3SM -SN BKN032 OVC075 M07/M09 A2964 RMK AO2 SLP048 P0000 T10671094
KBIV 140341Z AUTO 01010G17KT 2SM -SN OVC034 M07/M09 A2963 RMK AO2 P0000 T10671094
KBIV 140318Z AUTO 01012G18KT 4SM -SN BR OVC034 M07/M09 A2961 RMK AO2 PRESRR P0000 T10671089
KBIV 140253Z AUTO 02011G16KT 2SM -SN BR OVC032 M07/M09 A2957 RMK AO2 SLP024 P0000 60002 T10671089 51045
KBIV 140248Z AUTO 02008G16KT 2 1/2SM -SN BR OVC034 M07/M09 A2957 RMK AO2 P0000
KBIV 140235Z AUTO 02007G17KT 3SM -SN BR OVC035 M07/M09 A2955 RMK AO2 PRESRR P0000 T10671089
KBIV 140226Z AUTO 02010G17KT 2 1/2SM -SN BR OVC033 M07/M08 A2954 RMK AO2 P0000 T10671083
KBIV 140216Z AUTO 02009G15KT 2 1/2SM -SN BR OVC029 M07/M08 A2953 RMK AO2 PRESRR P0000 T10671083
KBIV 140153Z AUTO 02008KT 1 1/2SM -SN BR OVC019 M07/M08 A2950 RMK AO2 PRESRR SLP000 P0001 T10671083
KBIV 140145Z AUTO 03011KT 1 1/4SM -SN BR OVC015 M07/M08 A2949 RMK AO2 P0001 T10671083
KBIV 140109Z AUTO 03008KT 1SM -SN BR VV014 M07/M08 A2946 RMK AO2 PRESRR P0000 T10671083
KBIV 140102Z AUTO 03009KT 1SM -SN BR VV015 M06/M08 A2945 RMK AO2 PRESRR P0000 T10611083
KBIV 140053Z AUTO 04007G17KT 1SM -SN BR VV014 M06/M08 A2943 RMK AO2 PRESRR SLP977 P0001 T10611083
KBIV 140024Z AUTO 05008KT 1 1/4SM -SN BR OVC017 M06/M08 A2940 RMK AO2 P0000 T10611083
KBIV 140011Z AUTO 06008KT 1 1/2SM -SN BR OVC021 M06/M08 A2939 RMK AO2 P0000 T10611083
KBIV 132353Z AUTO 06011KT 2SM -SN BR OVC022 M06/M08 A2938 RMK AO2 SLP960 P0002 60010 T10611083 11033 21061 53016
KBIV 132336Z AUTO 07010KT 1 1/2SM -SN BR OVC018 M06/M08 A2937 RMK AO2 P0002 T10611078
KBIV 132323Z AUTO 07009KT 1SM -SN BR VV011 M06/M08 A2936 RMK AO2 P0002 T10611078
KBIV 132319Z AUTO 07010KT 3/4SM -SN BR VV009 M06/M08 A2936 RMK AO2 P0002 T10611078
KBIV 132253Z AUTO 08009KT 1/2SM SN FZFG VV006 M06/M08 A2935 RMK AO2 SLP949 P0003 T10561078
KBIV 132204Z AUTO 08013G20KT 1/4SM SN FZFG VV009 M06/M07 A2932 RMK AO2 P0000 T10561072
KBIV 132153Z AUTO 09013KT 1/4SM SN FZFG VV010 M05/M07 A2933 RMK AO2 SLP940 P0002 T10501072
KBIV 132108Z AUTO 10012KT 1/2SM SN FZFG BKN014 OVC029 M05/M07 A2933 RMK AO2 P0000 T10501072
KBIV 132100Z AUTO 10010KT 3/4SM -SN BR BKN014 OVC029 M05/M07 A2933 RMK AO2 P0000 T10501072
KBIV 132053Z AUTO 10011KT 3/4SM -SN BR SCT014 OVC029 M05/M07 A2933 RMK AO2 SLP943 P0003 60003 T10501067 56012
KBIV 132042Z AUTO 10009KT 3/4SM -SN BR SCT008 OVC029 M05/M07 A2934 RMK AO2 P0002 T10501067
KBIV 132022Z AUTO 10007KT 1/4SM +SN FZFG VV008 M05/M07 A2935 RMK AO2 P0001 T10501067
KBIV 132010Z AUTO 12008KT 1/2SM SN VV010 M04/M07 A2934 RMK AO2 P0000 T10441072
KBIV 131953Z AUTO 13009KT 3/4SM -SN VV014 M04/M08 A2934 RMK AO2 SNB27 SLP947 P0000 T10441083
KBIV 131951Z AUTO 13011KT 3/4SM -SN VV014 M04/M08 A2934 RMK AO2 SNB27 P0000
KBIV 131948Z AUTO 14012KT 1SM -SN VV015 M04/M08 A2934 RMK AO2 SNB27 P0000
KBIV 131939Z AUTO 14012KT 1 3/4SM -SN OVC021 M04/M09 A2935 RMK AO2 SNB27 P0000 T10391094
KBIV 131933Z AUTO 14014KT 4SM -SN BKN025 OVC034 M03/M10 A2935 RMK AO2 SNB27 P0000 T10331100
KBIV 131853Z AUTO 14013KT 10SM OVC040 M04/M10 A2937 RMK AO2 PRESFR SLP955 T10391100
KBIV 131753Z AUTO 13013KT 10SM BKN050 OVC110 M04/M10 A2941 RMK AO2 PRESFR SLP970 60000 T10441100 11044 21072 58064
KBIV 131653Z AUTO 13018G22KT 10SM FEW043 OVC100 M06/M11 A2947 RMK AO2 PRESFR SLP991 T10561106
KBIV 131553Z AUTO 13014G22KT 10SM OVC037 M07/M09 A2957 RMK AO2 SNE20 SLP024 P0000 T10671094
KBIV 131516Z AUTO 15012KT 6SM -SN FEW018 OVC037 M07/M09 A2960 RMK AO2 P0000 T10671094
KBIV 131506Z AUTO 14012KT 2SM -SN BR SCT014 OVC037 M07/M09 A2960 RMK AO2 P0000 T10721094
KBIV 131458Z AUTO 14012KT 1SM -SN BR BKN014 OVC037 M07/M09 A2961 RMK AO2 P0000 T10721094
KBIV 131453Z AUTO 14013KT 1/2SM -SN FZFG VV012 M07/M09 A2960 RMK AO2 SLP037 P0000 60000 T10721094 58043
KBIV 131436Z AUTO 14013KT 1/2SM SN VV014 M07/M10 A2963 RMK AO2 P0000 T10721100
KBIV 131426Z AUTO 15013KT 3/4SM -SN VV019 M07/M11 A2963 RMK AO2 P0000 T10721106
KBIV 131422Z AUTO 14011KT 1 1/2SM -SN OVC022 M07/M11 A2964 RMK AO2 P0000 T10671106
KBIV 131418Z AUTO 14011KT 3SM -SN OVC024 M07/M11 A2964 RMK AO2 P0000 T10671106
KBIV 131353Z AUTO 15012KT 4SM -SN BKN036 OVC047 M07/M11 A2965 RMK AO2 SNB06 SLP052 P0000 T10671106
KBIV 131317Z AUTO 16012KT 8SM -SN SCT027 OVC034 M07/M11 A2967 RMK AO2 SNB06 P0000 T10671106
KBIV 131253Z AUTO 16010KT 10SM OVC026 M07/M11 A2969 RMK AO2 SNB29E39 SLP066 P0000 T10721106
KBIV 131153Z AUTO 16008KT 10SM OVC029 M07/M10 A2973 RMK AO2 SLP081 60000 70018 T10721100 11072 21089 56030
KBIV 131145Z AUTO 16008KT 10SM OVC029 M07/M10 A2974 RMK AO2 T10721100
KBIV 131053Z AUTO 16009KT 10SM BKN037 OVC043 M08/M10 A2975 RMK AO2 SNE37 SLP087 P0000 T10781100
KBIV 130953Z AUTO 15005KT 8SM -SN SCT050 OVC060 M08/M10 A2980 RMK AO2 SNB31 SLP102 P0000 T10831100
KBIV 130853Z AUTO 15004KT 10SM FEW033 BKN050 OVC070 M08/M11 A2983 RMK AO2 SLP112 T10831106 56019
KBIV 130753Z AUTO 18004KT 10SM FEW033 M09/M11 A2985 RMK AO2 SLP119 T10891106
KBIV 130653Z AUTO 17005KT 10SM BKN035 M09/M11 A2985 RMK AO2 SLP121 T10891106
KBIV 130553Z AUTO 16004KT 9SM FEW028 OVC039 M09/M11 A2988 RMK AO2 SNB16E48 SLP132 P0000 60004 T10891106 11072 21089 58016
KBIV 130453Z AUTO 18004KT 10SM OVC044 M09/M11 A2991 RMK AO2 SNE33 SLP141 P0000 T10891106 400001089
KBIV 130407Z AUTO 14003KT 3SM -SN BR FEW015 SCT025 OVC038 M08/M10 A2992 RMK AO2 P0000 T10831100
KBIV 130357Z AUTO 00000KT 3SM -SN BR SCT019 BKN026 OVC036 M08/M09 A2993 RMK AO2 P0000 T10781094
KBIV 130353Z AUTO 00000KT 1 3/4SM -SN BR SCT017 BKN026 OVC037 M08/M09 A2993 RMK AO2 SLP148 P0001 T10781094
KBIV 130342Z AUTO 00000KT 1 3/4SM -SN BR BKN017 OVC037 M08/M10 A2993 RMK AO2 P0001 T10781100
KBIV 130253Z AUTO 00000KT 6SM -SN BR FEW031 OVC043 M08/M10 A2994 RMK AO2 SLP150 P0000 60003 T10781100 58007
KBIV 130153Z AUTO 02003KT 5SM -SN BR FEW029 OVC039 M08/M09 A2995 RMK AO2 SLP155 P0001 T10781094
KBIV 130143Z AUTO 00000KT 7SM -SN FEW029 OVC037 M08/M09 A2995 RMK AO2 P0001 T10781094
KBIV 130135Z AUTO 00000KT 4SM -SN BR FEW015 BKN029 OVC037 M08/M09 A2995 RMK AO2 P0001 T10781094
KBIV 130125Z AUTO 00000KT 2 1/2SM -SN BR SCT009 BKN029 OVC037 M07/M09 A2995 RMK AO2 P0001 T10721094
KBIV 130121Z AUTO 00000KT 1 1/2SM -SN BR BKN007 BKN029 OVC037 M07/M09 A2995 RMK AO2 P0001 T10721094
KBIV 130053Z AUTO 01003KT 3/4SM -SN BR BKN009 OVC018 M07/M09 A2996 RMK AO2 SLP157 P0002 T10721094
KBIV 130051Z AUTO 02003KT 3/4SM -SN VV010 M07/M10 A2996 RMK AO2 P0002
KBIV 130042Z AUTO 36003KT 1 1/2SM -SN BR BKN013 OVC018 M08/M10 A2996 RMK AO2 P0001 T10781100
KBIV 130034Z AUTO 01004KT 3/4SM -SN BR VV014 M08/M10 A2995 RMK AO2 P0001 T10781100
KBIV 130025Z AUTO 02004KT 1SM -SN BR BKN019 OVC034 M08/M10 A2996 RMK AO2 P0001 T10781100
KBIV 130017Z AUTO 03005KT 1 3/4SM -SN BR BKN023 OVC033 M08/M10 A2996 RMK AO2 P0000 T10781100
KBIV 122353Z AUTO 03003KT 5SM -SN BKN021 OVC041 M08/M11 A2996 RMK AO2 SNB2255 SLP158 P0001 60004 T10781106 11067 21078 51004
KBIV 122349Z AUTO 03005KT 2SM -SN BR SCT018 OVC041 M08/M10 A2996 RMK AO2 SNB2255 P0001
KBIV 122335Z AUTO 03005KT 1 1/4SM -SN BR BKN015 BKN025 OVC030 M08/M10 A2996 RMK AO2 SNB2255 P0001 T10781100
KBIV 122322Z AUTO 02005KT 2SM -SN BKN017 BKN030 OVC041 M07/M10 A2996 RMK AO2 SNB2255 P0000 T10721100
KBIV 122304Z AUTO 36005KT 1 1/4SM -SN FEW014 BKN020 OVC044 M07/M10 A2996 RMK AO2 SNB2255 P0000 T10721100
KBIV 122300Z AUTO 35005KT 2 1/2SM -SN FEW014 BKN024 OVC044 M07/M10 A2996 RMK AO2 SNB2255 P0000 T10721100
KBIV 122253Z AUTO 02004KT 10SM FEW025 BKN033 OVC050 M07/M10 A2996 RMK AO2 SNE22 SLP156 P0001 T10721100